sensor_id;sensor_type;location;lat;lon;timestamp;temperature;humidity
76293;DHT22;67256;51.154;4.164;2024-01-06T00:01:50;8.40;99.90
76293;DHT22;67256;51.154;4.164;2024-01-06T00:04:16;8.40;99.90
76293;DHT22;67256;51.154;4.164;2024-01-06T00:06:41;8.40;99.90
76293;DHT22;67256;51.154;4.164;2024-01-06T00:09:07;8.40;99.90
76293;DHT22;67256;51.154;4.164;2024-01-06T00:11:33;8.30;99.90
76293;DHT22;67256;51.154;4.164;2024-01-06T00:13:58;8.40;99.90
76293;DHT22;67256;51.154;4.164;2024-01-06T00:16:24;8.50;99.90
76293;DHT22;67256;51.154;4.164;2024-01-06T00:18:50;8.30;99.90
76293;DHT22;67256;51.154;4.164;2024-01-06T00:21:16;8.30;99.90
76293;DHT22;67256;51.154;4.164;2024-01-06T00:23:42;8.20;99.90
76293;DHT22;67256;51.154;4.164;2024-01-06T00:26:09;8.30;99.90
76293;DHT22;67256;51.154;4.164;2024-01-06T00:28:35;8.30;99.90
76293;DHT22;67256;51.154;4.164;2024-01-06T00:31:01;8.30;99.90
76293;DHT22;67256;51.154;4.164;2024-01-06T00:33:26;8.20;99.90
76293;DHT22;67256;51.154;4.164;2024-01-06T00:35:52;8.20;99.90
76293;DHT22;67256;51.154;4.164;2024-01-06T00:38:20;8.20;99.90
76293;DHT22;67256;51.154;4.164;2024-01-06T00:40:46;8.20;99.90
76293;DHT22;67256;51.154;4.164;2024-01-06T00:43:11;8.20;99.90
76293;DHT22;67256;51.154;4.164;2024-01-06T00:45:37;8.10;99.90
76293;DHT22;67256;51.154;4.164;2024-01-06T00:48:04;8.20;99.90
76293;DHT22;67256;51.154;4.164;2024-01-06T00:50:29;8.20;99.90
76293;DHT22;67256;51.154;4.164;2024-01-06T00:52:55;8.20;99.90
76293;DHT22;67256;51.154;4.164;2024-01-06T00:55:21;8.20;99.90
76293;DHT22;67256;51.154;4.164;2024-01-06T00:57:47;8.30;99.90
76293;DHT22;67256;51.154;4.164;2024-01-06T01:00:13;8.20;99.90
76293;DHT22;67256;51.154;4.164;2024-01-06T01:02:39;8.20;99.90
76293;DHT22;67256;51.154;4.164;2024-01-06T01:05:06;8.20;99.90
76293;DHT22;67256;51.154;4.164;2024-01-06T01:07:34;8.20;99.90
76293;DHT22;67256;51.154;4.164;2024-01-06T01:10:00;8.20;99.90
76293;DHT22;67256;51.154;4.164;2024-01-06T01:12:25;8.20;99.90
76293;DHT22;67256;51.154;4.164;2024-01-06T01:14:51;8.20;99.90
76293;DHT22;67256;51.154;4.164;2024-01-06T01:17:17;8.30;99.90
76293;DHT22;67256;51.154;4.164;2024-01-06T01:19:43;8.30;99.90
76293;DHT22;67256;51.154;4.164;2024-01-06T01:22:09;8.50;99.90
76293;DHT22;67256;51.154;4.164;2024-01-06T01:24:35;8.50;99.90
76293;DHT22;67256;51.154;4.164;2024-01-06T01:27:00;8.50;99.90
76293;DHT22;67256;51.154;4.164;2024-01-06T01:29:26;8.60;99.90
76293;DHT22;67256;51.154;4.164;2024-01-06T01:31:52;8.80;99.90
76293;DHT22;67256;51.154;4.164;2024-01-06T01:34:17;8.70;99.90
76293;DHT22;67256;51.154;4.164;2024-01-06T01:36:43;8.70;99.90
76293;DHT22;67256;51.154;4.164;2024-01-06T01:39:09;8.60;99.90
76293;DHT22;67256;51.154;4.164;2024-01-06T01:41:35;8.60;99.90
76293;DHT22;67256;51.154;4.164;2024-01-06T01:44:01;8.70;99.90
76293;DHT22;67256;51.154;4.164;2024-01-06T01:46:29;8.60;99.90
76293;DHT22;67256;51.154;4.164;2024-01-06T01:48:56;8.70;99.90
76293;DHT22;67256;51.154;4.164;2024-01-06T01:51:22;8.70;99.90
76293;DHT22;67256;51.154;4.164;2024-01-06T01:53:49;8.70;99.90
76293;DHT22;67256;51.154;4.164;2024-01-06T01:56:16;8.60;99.90
76293;DHT22;67256;51.154;4.164;2024-01-06T01:58:42;8.50;99.90
76293;DHT22;67256;51.154;4.164;2024-01-06T02:01:08;8.40;99.90
76293;DHT22;67256;51.154;4.164;2024-01-06T02:03:35;8.40;99.90
76293;DHT22;67256;51.154;4.164;2024-01-06T02:06:01;8.50;99.90
76293;DHT22;67256;51.154;4.164;2024-01-06T02:08:27;8.50;99.90
76293;DHT22;67256;51.154;4.164;2024-01-06T02:10:56;8.50;99.90
76293;DHT22;67256;51.154;4.164;2024-01-06T02:13:22;8.50;99.90
76293;DHT22;67256;51.154;4.164;2024-01-06T02:15:48;8.50;99.90
76293;DHT22;67256;51.154;4.164;2024-01-06T02:18:14;8.50;99.90
76293;DHT22;67256;51.154;4.164;2024-01-06T02:20:43;8.60;99.90
76293;DHT22;67256;51.154;4.164;2024-01-06T02:23:10;8.40;99.90
76293;DHT22;67256;51.154;4.164;2024-01-06T02:25:36;8.50;99.90
76293;DHT22;67256;51.154;4.164;2024-01-06T02:28:01;8.50;99.90
76293;DHT22;67256;51.154;4.164;2024-01-06T02:30:27;8.60;99.90
76293;DHT22;67256;51.154;4.164;2024-01-06T02:32:53;8.60;99.90
76293;DHT22;67256;51.154;4.164;2024-01-06T02:35:19;8.60;99.90
76293;DHT22;67256;51.154;4.164;2024-01-06T02:37:45;8.70;99.90
76293;DHT22;67256;51.154;4.164;2024-01-06T02:40:11;8.80;99.90
76293;DHT22;67256;51.154;4.164;2024-01-06T02:42:37;8.60;99.90
76293;DHT22;67256;51.154;4.164;2024-01-06T02:45:03;8.20;99.90
76293;DHT22;67256;51.154;4.164;2024-01-06T02:47:28;8.20;99.90
76293;DHT22;67256;51.154;4.164;2024-01-06T02:49:54;8.10;99.90
76293;DHT22;67256;51.154;4.164;2024-01-06T02:52:20;8.00;99.90
76293;DHT22;67256;51.154;4.164;2024-01-06T02:54:45;8.00;99.90
76293;DHT22;67256;51.154;4.164;2024-01-06T02:57:11;8.10;99.90
76293;DHT22;67256;51.154;4.164;2024-01-06T02:59:39;8.20;99.90
76293;DHT22;67256;51.154;4.164;2024-01-06T03:02:04;8.00;99.90
76293;DHT22;67256;51.154;4.164;2024-01-06T03:04:31;8.00;99.90
76293;DHT22;67256;51.154;4.164;2024-01-06T03:06:56;8.10;99.90
76293;DHT22;67256;51.154;4.164;2024-01-06T03:09:22;8.00;99.90
76293;DHT22;67256;51.154;4.164;2024-01-06T03:11:48;8.20;99.90
76293;DHT22;67256;51.154;4.164;2024-01-06T03:14:13;8.20;99.90
76293;DHT22;67256;51.154;4.164;2024-01-06T03:16:39;8.40;99.90
76293;DHT22;67256;51.154;4.164;2024-01-06T03:19:05;8.50;99.90
76293;DHT22;67256;51.154;4.164;2024-01-06T03:21:31;8.40;99.90
76293;DHT22;67256;51.154;4.164;2024-01-06T03:23:57;8.30;99.90
76293;DHT22;67256;51.154;4.164;2024-01-06T03:26:22;8.40;99.90
76293;DHT22;67256;51.154;4.164;2024-01-06T03:28:49;8.50;99.90
76293;DHT22;67256;51.154;4.164;2024-01-06T03:31:15;8.50;99.90
76293;DHT22;67256;51.154;4.164;2024-01-06T03:33:42;8.60;99.90
76293;DHT22;67256;51.154;4.164;2024-01-06T03:36:08;8.70;99.90
76293;DHT22;67256;51.154;4.164;2024-01-06T03:38:34;8.80;99.90
76293;DHT22;67256;51.154;4.164;2024-01-06T03:41:00;8.80;99.90
76293;DHT22;67256;51.154;4.164;2024-01-06T03:43:26;8.70;99.90
76293;DHT22;67256;51.154;4.164;2024-01-06T03:45:52;8.60;99.90
76293;DHT22;67256;51.154;4.164;2024-01-06T03:48:17;8.70;99.90
76293;DHT22;67256;51.154;4.164;2024-01-06T03:50:43;8.80;99.70
76293;DHT22;67256;51.154;4.164;2024-01-06T03:53:09;8.80;99.90
76293;DHT22;67256;51.154;4.164;2024-01-06T03:55:35;8.70;99.90
76293;DHT22;67256;51.154;4.164;2024-01-06T03:58:00;8.60;99.60
76293;DHT22;67256;51.154;4.164;2024-01-06T04:00:26;8.50;99.90
76293;DHT22;67256;51.154;4.164;2024-01-06T04:02:52;8.60;99.80
76293;DHT22;67256;51.154;4.164;2024-01-06T04:05:17;8.70;99.50
76293;DHT22;67256;51.154;4.164;2024-01-06T04:07:43;8.70;99.60
76293;DHT22;67256;51.154;4.164;2024-01-06T04:10:09;8.80;99.40
76293;DHT22;67256;51.154;4.164;2024-01-06T04:12:35;8.70;99.20
76293;DHT22;67256;51.154;4.164;2024-01-06T04:15:00;8.60;99.10
76293;DHT22;67256;51.154;4.164;2024-01-06T04:17:26;8.50;98.90
76293;DHT22;67256;51.154;4.164;2024-01-06T04:19:52;8.30;99.30
76293;DHT22;67256;51.154;4.164;2024-01-06T04:22:18;8.20;99.80
76293;DHT22;67256;51.154;4.164;2024-01-06T04:24:45;8.10;99.40
76293;DHT22;67256;51.154;4.164;2024-01-06T04:27:11;7.90;99.50
76293;DHT22;67256;51.154;4.164;2024-01-06T04:29:36;7.80;99.70
76293;DHT22;67256;51.154;4.164;2024-01-06T04:32:02;7.90;99.90
76293;DHT22;67256;51.154;4.164;2024-01-06T04:34:28;8.00;99.50
76293;DHT22;67256;51.154;4.164;2024-01-06T04:36:53;8.10;99.60
76293;DHT22;67256;51.154;4.164;2024-01-06T04:39:19;8.10;99.60
76293;DHT22;67256;51.154;4.164;2024-01-06T04:41:45;8.10;99.40
76293;DHT22;67256;51.154;4.164;2024-01-06T04:44:10;8.00;99.50
76293;DHT22;67256;51.154;4.164;2024-01-06T04:46:36;8.00;99.30
76293;DHT22;67256;51.154;4.164;2024-01-06T04:49:02;8.00;99.60
76293;DHT22;67256;51.154;4.164;2024-01-06T04:51:28;7.90;99.30
76293;DHT22;67256;51.154;4.164;2024-01-06T04:53:53;7.80;99.60
76293;DHT22;67256;51.154;4.164;2024-01-06T04:56:19;7.80;99.50
76293;DHT22;67256;51.154;4.164;2024-01-06T04:58:45;7.70;99.40
76293;DHT22;67256;51.154;4.164;2024-01-06T05:01:10;7.50;99.50
76293;DHT22;67256;51.154;4.164;2024-01-06T05:03:37;7.50;99.80
76293;DHT22;67256;51.154;4.164;2024-01-06T05:06:03;7.50;99.80
76293;DHT22;67256;51.154;4.164;2024-01-06T05:08:29;7.50;99.70
76293;DHT22;67256;51.154;4.164;2024-01-06T05:10:58;7.60;99.50
76293;DHT22;67256;51.154;4.164;2024-01-06T05:13:24;7.70;99.40
76293;DHT22;67256;51.154;4.164;2024-01-06T05:15:50;7.70;99.70
76293;DHT22;67256;51.154;4.164;2024-01-06T05:18:16;7.60;99.40
76293;DHT22;67256;51.154;4.164;2024-01-06T05:20:42;7.50;99.80
76293;DHT22;67256;51.154;4.164;2024-01-06T05:23:08;7.60;99.70
76293;DHT22;67256;51.154;4.164;2024-01-06T05:25:34;7.50;99.80
76293;DHT22;67256;51.154;4.164;2024-01-06T05:28:00;7.50;99.90
76293;DHT22;67256;51.154;4.164;2024-01-06T05:30:26;7.40;99.70
76293;DHT22;67256;51.154;4.164;2024-01-06T05:32:51;7.30;99.60
76293;DHT22;67256;51.154;4.164;2024-01-06T05:35:17;7.30;99.80
76293;DHT22;67256;51.154;4.164;2024-01-06T05:37:43;7.60;99.20
76293;DHT22;67256;51.154;4.164;2024-01-06T05:40:09;7.40;99.30
76293;DHT22;67256;51.154;4.164;2024-01-06T05:42:35;7.40;99.40
76293;DHT22;67256;51.154;4.164;2024-01-06T05:45:00;7.40;99.30
76293;DHT22;67256;51.154;4.164;2024-01-06T05:47:26;7.40;99.30
76293;DHT22;67256;51.154;4.164;2024-01-06T05:49:52;7.30;99.10
76293;DHT22;67256;51.154;4.164;2024-01-06T05:52:18;7.20;99.50
76293;DHT22;67256;51.154;4.164;2024-01-06T05:54:43;7.20;99.80
76293;DHT22;67256;51.154;4.164;2024-01-06T05:57:09;7.20;99.70
76293;DHT22;67256;51.154;4.164;2024-01-06T05:59:35;7.40;99.20
76293;DHT22;67256;51.154;4.164;2024-01-06T06:02:01;7.40;99.40
76293;DHT22;67256;51.154;4.164;2024-01-06T06:04:27;7.40;99.40
76293;DHT22;67256;51.154;4.164;2024-01-06T06:06:53;7.40;99.20
76293;DHT22;67256;51.154;4.164;2024-01-06T06:09:18;7.40;99.40
76293;DHT22;67256;51.154;4.164;2024-01-06T06:11:46;7.30;99.40
76293;DHT22;67256;51.154;4.164;2024-01-06T06:14:12;7.30;99.30
76293;DHT22;67256;51.154;4.164;2024-01-06T06:16:38;7.30;99.40
76293;DHT22;67256;51.154;4.164;2024-01-06T06:19:04;7.30;99.60
76293;DHT22;67256;51.154;4.164;2024-01-06T06:21:29;7.40;99.60
76293;DHT22;67256;51.154;4.164;2024-01-06T06:23:55;7.20;99.90
76293;DHT22;67256;51.154;4.164;2024-01-06T06:26:21;7.10;99.90
76293;DHT22;67256;51.154;4.164;2024-01-06T06:28:47;6.90;99.90
76293;DHT22;67256;51.154;4.164;2024-01-06T06:31:13;6.90;99.90
76293;DHT22;67256;51.154;4.164;2024-01-06T06:33:38;6.80;99.90
76293;DHT22;67256;51.154;4.164;2024-01-06T06:36:05;7.00;99.90
76293;DHT22;67256;51.154;4.164;2024-01-06T06:38:31;7.00;99.90
76293;DHT22;67256;51.154;4.164;2024-01-06T06:40:56;7.00;99.90
76293;DHT22;67256;51.154;4.164;2024-01-06T06:43:22;6.90;99.90
76293;DHT22;67256;51.154;4.164;2024-01-06T06:45:48;6.90;99.90
76293;DHT22;67256;51.154;4.164;2024-01-06T06:48:13;6.80;99.90
76293;DHT22;67256;51.154;4.164;2024-01-06T06:50:39;6.90;99.90
76293;DHT22;67256;51.154;4.164;2024-01-06T06:53:07;7.00;99.90
76293;DHT22;67256;51.154;4.164;2024-01-06T06:55:32;6.80;99.90
76293;DHT22;67256;51.154;4.164;2024-01-06T06:57:58;6.80;99.90
76293;DHT22;67256;51.154;4.164;2024-01-06T07:00:24;6.90;99.90
76293;DHT22;67256;51.154;4.164;2024-01-06T07:02:50;6.90;99.90
76293;DHT22;67256;51.154;4.164;2024-01-06T07:05:16;6.80;99.90
76293;DHT22;67256;51.154;4.164;2024-01-06T07:07:42;6.90;99.90
76293;DHT22;67256;51.154;4.164;2024-01-06T07:10:12;6.80;99.90
76293;DHT22;67256;51.154;4.164;2024-01-06T07:12:38;6.80;99.70
76293;DHT22;67256;51.154;4.164;2024-01-06T07:15:04;6.80;99.80
76293;DHT22;67256;51.154;4.164;2024-01-06T07:17:30;6.80;99.90
76293;DHT22;67256;51.154;4.164;2024-01-06T07:19:56;6.80;99.60
76293;DHT22;67256;51.154;4.164;2024-01-06T07:22:21;6.70;99.60
76293;DHT22;67256;51.154;4.164;2024-01-06T07:24:47;6.70;99.80
76293;DHT22;67256;51.154;4.164;2024-01-06T07:27:13;6.60;99.90
76293;DHT22;67256;51.154;4.164;2024-01-06T07:29:38;6.60;99.90
76293;DHT22;67256;51.154;4.164;2024-01-06T07:32:04;6.50;99.90
76293;DHT22;67256;51.154;4.164;2024-01-06T07:34:32;6.50;99.90
76293;DHT22;67256;51.154;4.164;2024-01-06T07:36:57;6.50;99.90
76293;DHT22;67256;51.154;4.164;2024-01-06T07:39:23;6.50;99.90
76293;DHT22;67256;51.154;4.164;2024-01-06T07:41:50;6.50;99.90
76293;DHT22;67256;51.154;4.164;2024-01-06T07:44:16;6.50;99.90
76293;DHT22;67256;51.154;4.164;2024-01-06T07:46:48;6.60;99.90
76293;DHT22;67256;51.154;4.164;2024-01-06T07:49:13;6.60;99.90
76293;DHT22;67256;51.154;4.164;2024-01-06T07:51:39;6.50;99.90
76293;DHT22;67256;51.154;4.164;2024-01-06T07:54:05;6.50;99.90
76293;DHT22;67256;51.154;4.164;2024-01-06T07:56:32;6.50;99.90
76293;DHT22;67256;51.154;4.164;2024-01-06T07:58:57;6.60;99.90
76293;DHT22;67256;51.154;4.164;2024-01-06T08:01:23;6.60;99.60
76293;DHT22;67256;51.154;4.164;2024-01-06T08:03:49;6.60;99.70
76293;DHT22;67256;51.154;4.164;2024-01-06T08:06:14;6.30;99.90
76293;DHT22;67256;51.154;4.164;2024-01-06T08:08:42;6.30;99.90
76293;DHT22;67256;51.154;4.164;2024-01-06T08:11:08;6.30;99.90
76293;DHT22;67256;51.154;4.164;2024-01-06T08:13:33;6.30;99.90
76293;DHT22;67256;51.154;4.164;2024-01-06T08:16:00;6.20;99.90
76293;DHT22;67256;51.154;4.164;2024-01-06T08:18:25;6.10;99.90
76293;DHT22;67256;51.154;4.164;2024-01-06T08:20:52;6.20;99.90
76293;DHT22;67256;51.154;4.164;2024-01-06T08:23:18;6.20;99.90
76293;DHT22;67256;51.154;4.164;2024-01-06T08:25:46;6.10;99.90
76293;DHT22;67256;51.154;4.164;2024-01-06T08:28:12;6.00;99.90
76293;DHT22;67256;51.154;4.164;2024-01-06T08:30:37;6.00;99.90
76293;DHT22;67256;51.154;4.164;2024-01-06T08:33:03;6.00;99.90
76293;DHT22;67256;51.154;4.164;2024-01-06T08:35:29;5.80;99.90
76293;DHT22;67256;51.154;4.164;2024-01-06T08:37:55;5.90;99.90
76293;DHT22;67256;51.154;4.164;2024-01-06T08:40:21;5.80;99.90
76293;DHT22;67256;51.154;4.164;2024-01-06T08:42:47;5.80;99.90
76293;DHT22;67256;51.154;4.164;2024-01-06T08:45:13;5.80;99.90
76293;DHT22;67256;51.154;4.164;2024-01-06T08:47:39;5.80;99.90
76293;DHT22;67256;51.154;4.164;2024-01-06T08:50:05;5.90;99.90
76293;DHT22;67256;51.154;4.164;2024-01-06T08:52:30;5.90;99.90
76293;DHT22;67256;51.154;4.164;2024-01-06T08:54:56;5.80;99.90
76293;DHT22;67256;51.154;4.164;2024-01-06T08:57:22;5.90;99.90
76293;DHT22;67256;51.154;4.164;2024-01-06T08:59:47;5.90;99.90
76293;DHT22;67256;51.154;4.164;2024-01-06T09:02:13;5.90;99.90
76293;DHT22;67256;51.154;4.164;2024-01-06T09:04:40;5.90;99.90
76293;DHT22;67256;51.154;4.164;2024-01-06T09:07:05;5.70;99.90
76293;DHT22;67256;51.154;4.164;2024-01-06T09:09:31;5.70;99.90
76293;DHT22;67256;51.154;4.164;2024-01-06T09:11:57;5.70;99.90
76293;DHT22;67256;51.154;4.164;2024-01-06T09:14:23;5.90;99.90
76293;DHT22;67256;51.154;4.164;2024-01-06T09:16:49;5.90;99.90
76293;DHT22;67256;51.154;4.164;2024-01-06T09:19:14;5.90;99.90
76293;DHT22;67256;51.154;4.164;2024-01-06T09:21:40;6.00;99.90
76293;DHT22;67256;51.154;4.164;2024-01-06T09:24:06;6.00;99.90
76293;DHT22;67256;51.154;4.164;2024-01-06T09:26:32;6.20;99.90
76293;DHT22;67256;51.154;4.164;2024-01-06T09:29:00;6.30;99.90
76293;DHT22;67256;51.154;4.164;2024-01-06T09:31:25;6.30;99.90
76293;DHT22;67256;51.154;4.164;2024-01-06T09:33:51;6.20;99.90
76293;DHT22;67256;51.154;4.164;2024-01-06T09:36:17;6.20;99.90
76293;DHT22;67256;51.154;4.164;2024-01-06T09:38:44;6.20;99.90
76293;DHT22;67256;51.154;4.164;2024-01-06T09:41:09;6.20;99.90
76293;DHT22;67256;51.154;4.164;2024-01-06T09:43:36;6.20;99.90
76293;DHT22;67256;51.154;4.164;2024-01-06T09:48:40;6.00;99.90
76293;DHT22;67256;51.154;4.164;2024-01-06T09:51:10;6.00;99.90
76293;DHT22;67256;51.154;4.164;2024-01-06T09:53:43;6.00;99.90
76293;DHT22;67256;51.154;4.164;2024-01-06T09:56:09;6.20;99.90
76293;DHT22;67256;51.154;4.164;2024-01-06T09:58:37;6.20;99.90
76293;DHT22;67256;51.154;4.164;2024-01-06T10:01:04;6.10;99.90
76293;DHT22;67256;51.154;4.164;2024-01-06T10:03:31;6.10;99.80
76293;DHT22;67256;51.154;4.164;2024-01-06T10:06:00;6.00;99.90
76293;DHT22;67256;51.154;4.164;2024-01-06T10:08:29;5.90;99.90
76293;DHT22;67256;51.154;4.164;2024-01-06T10:10:55;6.00;99.90
76293;DHT22;67256;51.154;4.164;2024-01-06T10:13:21;6.20;99.80
76293;DHT22;67256;51.154;4.164;2024-01-06T10:15:46;6.30;99.70
76293;DHT22;67256;51.154;4.164;2024-01-06T10:18:13;6.30;99.10
76293;DHT22;67256;51.154;4.164;2024-01-06T10:20:39;6.30;98.90
76293;DHT22;67256;51.154;4.164;2024-01-06T10:23:06;6.20;99.30
76293;DHT22;67256;51.154;4.164;2024-01-06T10:25:32;6.20;99.10
76293;DHT22;67256;51.154;4.164;2024-01-06T10:28:00;6.10;99.20
76293;DHT22;67256;51.154;4.164;2024-01-06T10:30:27;6.00;99.70
76293;DHT22;67256;51.154;4.164;2024-01-06T10:32:53;6.10;99.60
76293;DHT22;67256;51.154;4.164;2024-01-06T10:35:19;6.00;99.50
76293;DHT22;67256;51.154;4.164;2024-01-06T10:37:45;6.10;99.40
76293;DHT22;67256;51.154;4.164;2024-01-06T10:40:16;6.00;99.30
76293;DHT22;67256;51.154;4.164;2024-01-06T10:42:42;6.00;99.10
76293;DHT22;67256;51.154;4.164;2024-01-06T10:45:13;6.00;99.10
76293;DHT22;67256;51.154;4.164;2024-01-06T10:47:41;6.00;98.70
76293;DHT22;67256;51.154;4.164;2024-01-06T10:50:08;5.80;98.80
76293;DHT22;67256;51.154;4.164;2024-01-06T10:52:34;5.90;98.70
76293;DHT22;67256;51.154;4.164;2024-01-06T10:55:01;5.70;98.30
76293;DHT22;67256;51.154;4.164;2024-01-06T10:57:29;5.70;98.60
76293;DHT22;67256;51.154;4.164;2024-01-06T10:59:57;5.70;98.60
76293;DHT22;67256;51.154;4.164;2024-01-06T11:02:24;5.90;99.90
76293;DHT22;67256;51.154;4.164;2024-01-06T11:04:52;6.00;97.70
76293;DHT22;67256;51.154;4.164;2024-01-06T11:07:22;6.00;97.30
76293;DHT22;67256;51.154;4.164;2024-01-06T11:10:19;6.00;97.40
76293;DHT22;67256;51.154;4.164;2024-01-06T11:12:44;6.00;96.80
76293;DHT22;67256;51.154;4.164;2024-01-06T11:15:10;6.10;96.40
76293;DHT22;67256;51.154;4.164;2024-01-06T11:17:52;6.10;96.10
76293;DHT22;67256;51.154;4.164;2024-01-06T11:20:19;6.20;96.20
76293;DHT22;67256;51.154;4.164;2024-01-06T11:22:49;6.20;95.40
76293;DHT22;67256;51.154;4.164;2024-01-06T11:25:17;6.20;95.70
76293;DHT22;67256;51.154;4.164;2024-01-06T11:27:45;6.10;95.70
76293;DHT22;67256;51.154;4.164;2024-01-06T11:30:25;6.10;94.90
76293;DHT22;67256;51.154;4.164;2024-01-06T11:32:51;6.20;95.20
76293;DHT22;67256;51.154;4.164;2024-01-06T11:35:19;6.20;95.70
76293;DHT22;67256;51.154;4.164;2024-01-06T11:40:24;6.20;95.80
76293;DHT22;67256;51.154;4.164;2024-01-06T11:45:25;6.20;95.80
76293;DHT22;67256;51.154;4.164;2024-01-06T11:47:56;6.10;95.60
76293;DHT22;67256;51.154;4.164;2024-01-06T11:50:24;6.20;96.00
76293;DHT22;67256;51.154;4.164;2024-01-06T11:52:51;6.20;96.20
76293;DHT22;67256;51.154;4.164;2024-01-06T11:55:18;6.30;95.80
76293;DHT22;67256;51.154;4.164;2024-01-06T11:57:44;6.20;96.20
76293;DHT22;67256;51.154;4.164;2024-01-06T12:00:11;6.10;96.60
76293;DHT22;67256;51.154;4.164;2024-01-06T12:02:37;6.10;96.40
76293;DHT22;67256;51.154;4.164;2024-01-06T12:05:03;6.10;96.70
76293;DHT22;67256;51.154;4.164;2024-01-06T12:07:29;6.10;96.90
76293;DHT22;67256;51.154;4.164;2024-01-06T12:10:02;6.20;96.60
76293;DHT22;67256;51.154;4.164;2024-01-06T12:12:28;6.20;96.60
76293;DHT22;67256;51.154;4.164;2024-01-06T12:14:54;6.20;96.70
76293;DHT22;67256;51.154;4.164;2024-01-06T12:17:21;6.30;96.50
76293;DHT22;67256;51.154;4.164;2024-01-06T12:19:47;6.10;96.80
76293;DHT22;67256;51.154;4.164;2024-01-06T12:22:14;6.00;96.50
76293;DHT22;67256;51.154;4.164;2024-01-06T12:24:41;6.10;96.60
76293;DHT22;67256;51.154;4.164;2024-01-06T12:27:11;6.10;96.20
76293;DHT22;67256;51.154;4.164;2024-01-06T12:29:42;6.00;96.40
76293;DHT22;67256;51.154;4.164;2024-01-06T12:32:11;6.00;96.30
76293;DHT22;67256;51.154;4.164;2024-01-06T12:34:39;6.00;96.40
76293;DHT22;67256;51.154;4.164;2024-01-06T12:37:06;6.00;96.10
76293;DHT22;67256;51.154;4.164;2024-01-06T12:39:33;5.90;95.60
76293;DHT22;67256;51.154;4.164;2024-01-06T12:42:00;6.00;95.80
76293;DHT22;67256;51.154;4.164;2024-01-06T12:44:26;6.10;95.20
76293;DHT22;67256;51.154;4.164;2024-01-06T12:46:53;6.00;95.60
76293;DHT22;67256;51.154;4.164;2024-01-06T12:49:19;6.10;95.70
76293;DHT22;67256;51.154;4.164;2024-01-06T12:51:45;6.20;95.40
76293;DHT22;67256;51.154;4.164;2024-01-06T12:54:10;6.30;95.60
76293;DHT22;67256;51.154;4.164;2024-01-06T12:56:36;6.30;95.30
76293;DHT22;67256;51.154;4.164;2024-01-06T12:59:02;6.30;95.40
76293;DHT22;67256;51.154;4.164;2024-01-06T13:01:27;6.20;95.40
76293;DHT22;67256;51.154;4.164;2024-01-06T13:03:54;6.20;95.80
76293;DHT22;67256;51.154;4.164;2024-01-06T13:06:20;6.10;95.70
76293;DHT22;67256;51.154;4.164;2024-01-06T13:08:46;6.10;95.80
76293;DHT22;67256;51.154;4.164;2024-01-06T13:11:13;6.10;96.10
76293;DHT22;67256;51.154;4.164;2024-01-06T13:13:38;6.20;95.80
76293;DHT22;67256;51.154;4.164;2024-01-06T13:16:04;6.20;95.70
76293;DHT22;67256;51.154;4.164;2024-01-06T13:18:31;6.10;95.50
76293;DHT22;67256;51.154;4.164;2024-01-06T13:20:57;6.00;95.40
76293;DHT22;67256;51.154;4.164;2024-01-06T13:23:22;6.10;95.50
76293;DHT22;67256;51.154;4.164;2024-01-06T13:25:48;5.90;95.40
76293;DHT22;67256;51.154;4.164;2024-01-06T13:28:14;5.90;95.10
76293;DHT22;67256;51.154;4.164;2024-01-06T13:30:39;6.00;94.80
76293;DHT22;67256;51.154;4.164;2024-01-06T13:33:07;5.90;95.00
76293;DHT22;67256;51.154;4.164;2024-01-06T13:35:33;6.00;95.10
76293;DHT22;67256;51.154;4.164;2024-01-06T13:38:02;6.10;95.20
76293;DHT22;67256;51.154;4.164;2024-01-06T13:40:30;6.00;95.10
76293;DHT22;67256;51.154;4.164;2024-01-06T13:42:55;6.00;94.80
76293;DHT22;67256;51.154;4.164;2024-01-06T13:45:22;6.00;94.90
76293;DHT22;67256;51.154;4.164;2024-01-06T13:47:48;6.10;94.10
76293;DHT22;67256;51.154;4.164;2024-01-06T13:50:16;6.00;94.50
76293;DHT22;67256;51.154;4.164;2024-01-06T13:52:43;6.20;94.00
76293;DHT22;67256;51.154;4.164;2024-01-06T13:55:09;6.20;94.20
76293;DHT22;67256;51.154;4.164;2024-01-06T13:57:36;6.10;94.50
76293;DHT22;67256;51.154;4.164;2024-01-06T14:00:08;6.10;94.30
76293;DHT22;67256;51.154;4.164;2024-01-06T14:02:34;6.10;94.40
76293;DHT22;67256;51.154;4.164;2024-01-06T14:05:00;6.00;94.60
76293;DHT22;67256;51.154;4.164;2024-01-06T14:07:25;5.90;95.00
76293;DHT22;67256;51.154;4.164;2024-01-06T14:09:51;5.90;95.10
76293;DHT22;67256;51.154;4.164;2024-01-06T14:12:18;6.10;95.20
76293;DHT22;67256;51.154;4.164;2024-01-06T14:14:44;6.20;95.10
76293;DHT22;67256;51.154;4.164;2024-01-06T14:17:11;6.20;94.80
76293;DHT22;67256;51.154;4.164;2024-01-06T14:19:37;6.20;95.00
76293;DHT22;67256;51.154;4.164;2024-01-06T14:22:02;6.10;95.40
76293;DHT22;67256;51.154;4.164;2024-01-06T14:24:31;6.00;95.40
76293;DHT22;67256;51.154;4.164;2024-01-06T14:26:57;6.00;95.70
76293;DHT22;67256;51.154;4.164;2024-01-06T14:29:22;6.00;95.70
76293;DHT22;67256;51.154;4.164;2024-01-06T14:31:48;6.00;95.80
76293;DHT22;67256;51.154;4.164;2024-01-06T14:34:14;6.10;95.90
76293;DHT22;67256;51.154;4.164;2024-01-06T14:36:40;6.10;95.70
76293;DHT22;67256;51.154;4.164;2024-01-06T14:39:14;6.00;95.80
76293;DHT22;67256;51.154;4.164;2024-01-06T14:41:40;6.10;95.70
76293;DHT22;67256;51.154;4.164;2024-01-06T14:44:06;6.10;96.00
76293;DHT22;67256;51.154;4.164;2024-01-06T14:46:32;6.10;95.80
76293;DHT22;67256;51.154;4.164;2024-01-06T14:48:59;6.00;96.20
76293;DHT22;67256;51.154;4.164;2024-01-06T14:51:25;6.00;96.40
76293;DHT22;67256;51.154;4.164;2024-01-06T14:53:50;6.00;96.70
76293;DHT22;67256;51.154;4.164;2024-01-06T14:56:16;5.90;97.20
76293;DHT22;67256;51.154;4.164;2024-01-06T14:58:42;5.90;97.60
76293;DHT22;67256;51.154;4.164;2024-01-06T15:01:08;5.80;97.80
76293;DHT22;67256;51.154;4.164;2024-01-06T15:03:34;5.80;98.10
76293;DHT22;67256;51.154;4.164;2024-01-06T15:06:00;5.80;98.10
76293;DHT22;67256;51.154;4.164;2024-01-06T15:08:25;5.80;98.20
76293;DHT22;67256;51.154;4.164;2024-01-06T15:10:52;5.70;97.90
76293;DHT22;67256;51.154;4.164;2024-01-06T15:13:18;5.70;97.90
76293;DHT22;67256;51.154;4.164;2024-01-06T15:15:43;5.80;97.10
76293;DHT22;67256;51.154;4.164;2024-01-06T15:18:10;5.70;96.80
76293;DHT22;67256;51.154;4.164;2024-01-06T15:20:36;5.60;97.20
76293;DHT22;67256;51.154;4.164;2024-01-06T15:23:02;5.60;97.00
76293;DHT22;67256;51.154;4.164;2024-01-06T15:25:27;5.50;97.20
76293;DHT22;67256;51.154;4.164;2024-01-06T15:27:53;5.60;97.20
76293;DHT22;67256;51.154;4.164;2024-01-06T15:30:19;5.60;97.30
76293;DHT22;67256;51.154;4.164;2024-01-06T15:32:46;5.60;97.40
76293;DHT22;67256;51.154;4.164;2024-01-06T15:35:12;5.80;97.10
76293;DHT22;67256;51.154;4.164;2024-01-06T15:37:38;5.80;96.80
76293;DHT22;67256;51.154;4.164;2024-01-06T15:40:04;5.80;97.00
76293;DHT22;67256;51.154;4.164;2024-01-06T15:42:30;5.70;97.00
76293;DHT22;67256;51.154;4.164;2024-01-06T15:44:58;5.80;97.00
76293;DHT22;67256;51.154;4.164;2024-01-06T15:47:24;5.90;96.70